Time,TemperatureF,DewpointF,PressureIn,WindDirection,WindDirectionDegrees,WindSpeedMPH,WindSpeedGustMPH,Humidity,HourlyPrecipIn,Conditions,Clouds,dailyrainin,SolarRadiationWatts/m^2,SoftwareType,DateUTC
2017-07-20 00:04:00,76.1,68.0,30.00,West,275,0.0,3.0,76,0.00,,,0.00,0,weatherlink.com 1.10,2017-07-19 22:04:00,
2017-07-20 00:19:00,75.8,68.0,30.00,West,275,0.0,3.0,77,0.00,,,0.00,0,weatherlink.com 1.10,2017-07-19 22:19:00,
2017-07-20 00:34:00,75.6,68.0,30.00,West,275,0.0,2.0,77,0.00,,,0.00,0,weatherlink.com 1.10,2017-07-19 22:34:00,
2017-07-20 00:49:00,75.5,68.0,29.99,West,275,1.0,2.0,78,0.00,,,0.00,0,weatherlink.com 1.10,2017-07-19 22:49:00,
2017-07-20 01:04:00,75.4,68.0,29.99,West,275,0.0,4.0,78,0.00,,,0.00,0,weatherlink.com 1.10,2017-07-19 23:04:00,
2017-07-20 01:19:00,75.2,68.0,29.98,West,275,1.0,2.0,78,0.00,,,0.00,0,weatherlink.com 1.10,2017-07-19 23:19:00,
2017-07-20 01:34:00,75.1,68.0,29.98,West,275,0.0,2.0,78,0.00,,,0.00,0,weatherlink.com 1.10,2017-07-19 23:34:00,
2017-07-20 01:49:00,75.0,68.0,29.97,West,275,1.0,2.0,79,0.00,,,0.00,0,weatherlink.com 1.10,2017-07-19 23:49:00,
2017-07-20 02:04:00,74.9,68.0,29.97,West,275,0.0,1.0,79,0.00,,,0.00,0,weatherlink.com 1.10,2017-07-20 00:04:00,
2017-07-20 02:19:00,74.9,68.0,29.97,West,275,0.0,2.0,79,0.00,,,0.00,0,weatherlink.com 1.10,2017-07-20 00:19:00,
2017-07-20 02:34:00,74.9,68.0,29.96,West,275,0.0,2.0,79,0.00,,,0.00,0,weatherlink.com 1.10,2017-07-20 00:34:00,
2017-07-20 02:49:00,74.8,68.0,29.97,West,275,0.0,1.0,80,0.00,,,0.00,0,weatherlink.com 1.10,2017-07-20 00:49:00,
2017-07-20 03:04:00,74.6,68.0,29.97,West,275,0.0,3.0,79,0.00,,,0.00,0,weatherlink.com 1.10,2017-07-20 01:04:00,
2017-07-20 03:19:00,73.9,67.0,29.97,West,275,0.0,2.0,78,0.00,,,0.00,0,weatherlink.com 1.10,2017-07-20 01:19:00,
2017-07-20 03:35:00,73.2,66.0,29.97,West,275,0.0,1.0,78,0.00,,,0.00,0,weatherlink.com 1.10,2017-07-20 01:35:00,
2017-07-20 03:49:00,73.0,66.0,29.96,West,275,0.0,0.0,78,0.00,,,0.00,0,weatherlink.com 1.10,2017-07-20 01:49:00,
2017-07-20 04:04:00,72.8,66.0,29.96,West,275,0.0,0.0,78,0.00,,,0.00,0,weatherlink.com 1.10,2017-07-20 02:04:00,
2017-07-20 04:19:00,72.6,65.0,29.96,West,275,1.0,3.0,78,0.00,,,0.00,0,weatherlink.com 1.10,2017-07-20 02:19:00,
2017-07-20 04:34:00,72.4,65.0,29.96,West,275,0.0,2.0,77,0.00,,,0.00,0,weatherlink.com 1.10,2017-07-20 02:34:00,
2017-07-20 04:49:00,72.3,65.0,29.96,West,275,0.0,0.0,77,0.00,,,0.00,0,weatherlink.com 1.10,2017-07-20 02:49:00,
2017-07-20 05:05:00,72.6,65.0,29.97,West,275,0.0,3.0,77,0.00,,,0.00,0,weatherlink.com 1.10,2017-07-20 03:05:00,
2017-07-20 05:20:00,71.5,63.0,29.97,West,275,0.0,3.0,74,0.00,,,0.00,0,weatherlink.com 1.10,2017-07-20 03:20:00,
2017-07-20 05:35:00,71.5,62.0,29.97,West,275,1.0,2.0,72,0.00,,,0.00,0,weatherlink.com 1.10,2017-07-20 03:35:00,
2017-07-20 05:50:00,70.7,60.0,29.98,West,275,0.0,4.0,68,0.00,,,0.00,0,weatherlink.com 1.10,2017-07-20 03:50:00,
2017-07-20 06:05:00,70.0,58.0,29.98,West,275,0.0,3.0,67,0.00,,,0.00,9,weatherlink.com 1.10,2017-07-20 04:05:00,
2017-07-20 06:20:00,69.5,58.0,29.98,NW,317,0.0,5.0,66,0.00,,,0.00,19,weatherlink.com 1.10,2017-07-20 04:20:00,
2017-07-20 06:35:00,69.4,57.0,29.98,NNW,336,2.0,4.0,66,0.00,,,0.00,37,weatherlink.com 1.10,2017-07-20 04:35:00,
2017-07-20 06:50:00,69.3,57.0,29.98,North,351,0.0,5.0,66,0.00,,,0.00,67,weatherlink.com 1.10,2017-07-20 04:50:00,
2017-07-20 07:05:00,70.0,58.0,29.98,North,351,0.0,4.0,66,0.00,,,0.00,104,weatherlink.com 1.10,2017-07-20 05:05:00,
2017-07-20 07:20:00,70.8,59.0,29.98,North,351,0.0,2.0,66,0.00,,,0.00,141,weatherlink.com 1.10,2017-07-20 05:20:00,
2017-07-20 07:35:00,71.8,59.0,29.98,North,351,0.0,4.0,64,0.00,,,0.00,178,weatherlink.com 1.10,2017-07-20 05:35:00,
2017-07-20 07:50:00,73.0,59.0,29.98,NE,45,2.0,4.0,62,0.00,,,0.00,213,weatherlink.com 1.10,2017-07-20 05:50:00,
2017-07-20 08:05:00,75.0,59.0,29.97,East,84,0.0,5.0,58,0.00,,,0.00,257,weatherlink.com 1.10,2017-07-20 06:05:00,
2017-07-20 08:20:00,76.2,60.0,29.97,ESE,113,0.0,4.0,57,0.00,,,0.00,295,weatherlink.com 1.10,2017-07-20 06:20:00,
2017-07-20 08:35:00,77.0,60.0,29.98,SE,134,0.0,3.0,56,0.00,,,0.00,330,weatherlink.com 1.10,2017-07-20 06:35:00,
2017-07-20 08:50:00,78.0,60.0,29.97,SE,131,0.0,4.0,55,0.00,,,0.00,371,weatherlink.com 1.10,2017-07-20 06:50:00,
2017-07-20 09:05:00,78.6,60.0,29.97,SE,136,0.0,5.0,53,0.00,,,0.00,410,weatherlink.com 1.10,2017-07-20 07:05:00,
2017-07-20 09:21:00,79.3,60.0,29.97,SE,134,0.0,3.0,51,0.00,,,0.00,450,weatherlink.com 1.10,2017-07-20 07:21:00,
2017-07-20 09:36:00,80.5,60.0,29.96,SE,134,1.0,3.0,49,0.00,,,0.00,487,weatherlink.com 1.10,2017-07-20 07:36:00,
2017-07-20 09:51:00,82.0,59.0,29.96,SE,136,1.0,3.0,45,0.00,,,0.00,524,weatherlink.com 1.10,2017-07-20 07:51:00,
2017-07-20 10:06:00,83.3,58.0,29.96,West,262,0.0,4.0,43,0.00,,,0.00,554,weatherlink.com 1.10,2017-07-20 08:06:00,
2017-07-20 10:21:00,83.3,57.0,29.96,WNW,300,2.0,5.0,40,0.00,,,0.00,584,weatherlink.com 1.10,2017-07-20 08:21:00,
2017-07-20 10:36:00,84.1,54.0,29.96,West,279,2.0,5.0,36,0.00,,,0.00,617,weatherlink.com 1.10,2017-07-20 08:36:00,
2017-07-20 10:51:00,85.7,53.0,29.96,NE,38,1.0,4.0,33,0.00,,,0.00,652,weatherlink.com 1.10,2017-07-20 08:51:00,
2017-07-20 11:06:00,85.8,54.0,29.95,WNW,294,1.0,4.0,33,0.00,,,0.00,677,weatherlink.com 1.10,2017-07-20 09:06:00,
2017-07-20 11:21:00,86.6,54.0,29.95,WNW,288,0.0,5.0,33,0.00,,,0.00,700,weatherlink.com 1.10,2017-07-20 09:21:00,
2017-07-20 11:36:00,88.2,52.0,29.95,SE,129,1.0,6.0,29,0.00,,,0.00,728,weatherlink.com 1.10,2017-07-20 09:36:00,
2017-07-20 11:51:00,87.6,52.0,29.95,WNW,286,0.0,7.0,29,0.00,,,0.00,749,weatherlink.com 1.10,2017-07-20 09:51:00,
2017-07-20 12:06:00,88.8,52.0,29.95,NW,315,2.0,10.0,28,0.00,,,0.00,758,weatherlink.com 1.10,2017-07-20 10:06:00,
2017-07-20 12:21:00,88.6,53.0,29.95,WNW,294,0.0,7.0,30,0.00,,,0.00,772,weatherlink.com 1.10,2017-07-20 10:21:00,
2017-07-20 12:36:00,89.7,56.0,29.95,WSW,257,5.0,14.0,32,0.00,,,0.00,782,weatherlink.com 1.10,2017-07-20 10:36:00,
2017-07-20 12:51:00,89.2,57.0,29.95,West,281,5.0,11.0,33,0.00,,,0.00,789,weatherlink.com 1.10,2017-07-20 10:51:00,
2017-07-20 13:06:00,89.4,56.0,29.95,SSW,200,4.0,10.0,32,0.00,,,0.00,795,weatherlink.com 1.10,2017-07-20 11:06:00,
2017-07-20 13:21:00,89.9,55.0,29.95,NW,318,1.0,9.0,31,0.00,,,0.00,798,weatherlink.com 1.10,2017-07-20 11:21:00,
2017-07-20 13:37:00,89.7,54.0,29.94,West,262,3.0,9.0,30,0.00,,,0.00,798,weatherlink.com 1.10,2017-07-20 11:37:00,
2017-07-20 13:52:00,89.6,54.0,29.94,NW,309,5.0,7.0,30,0.00,,,0.00,793,weatherlink.com 1.10,2017-07-20 11:52:00,
2017-07-20 14:07:00,90.4,54.0,29.94,WSW,250,1.0,11.0,29,0.00,,,0.00,788,weatherlink.com 1.10,2017-07-20 12:07:00,
2017-07-20 14:22:00,90.6,53.0,29.93,NW,315,2.0,12.0,28,0.00,,,0.00,779,weatherlink.com 1.10,2017-07-20 12:22:00,
2017-07-20 14:37:00,90.8,52.0,29.93,NE,46,1.0,8.0,27,0.00,,,0.00,763,weatherlink.com 1.10,2017-07-20 12:37:00,
2017-07-20 14:52:00,91.2,52.0,29.92,WSW,246,0.0,9.0,26,0.00,,,0.00,747,weatherlink.com 1.10,2017-07-20 12:52:00,
2017-07-20 15:07:00,91.0,52.0,29.92,SW,234,2.0,9.0,26,0.00,,,0.00,728,weatherlink.com 1.10,2017-07-20 13:07:00,
2017-07-20 15:22:00,90.9,53.0,29.92,WNW,286,1.0,10.0,27,0.00,,,0.00,701,weatherlink.com 1.10,2017-07-20 13:22:00,
2017-07-20 15:37:00,91.1,54.0,29.91,West,269,7.0,10.0,28,0.00,,,0.00,680,weatherlink.com 1.10,2017-07-20 13:37:00,
2017-07-20 15:52:00,91.0,56.0,29.91,WSW,237,4.0,12.0,30,0.00,,,0.00,652,weatherlink.com 1.10,2017-07-20 13:52:00,
2017-07-20 16:07:00,90.8,57.0,29.91,West,269,1.0,11.0,32,0.00,,,0.00,615,weatherlink.com 1.10,2017-07-20 14:07:00,
2017-07-20 16:22:00,91.0,58.0,29.90,SW,226,7.0,10.0,33,0.00,,,0.00,582,weatherlink.com 1.10,2017-07-20 14:22:00,
2017-07-20 16:37:00,89.8,59.0,29.90,WSW,249,4.0,12.0,36,0.00,,,0.00,547,weatherlink.com 1.10,2017-07-20 14:37:00,
2017-07-20 16:52:00,89.0,59.0,29.90,West,271,7.0,12.0,37,0.00,,,0.00,508,weatherlink.com 1.10,2017-07-20 14:52:00,
2017-07-20 17:07:00,88.1,61.0,29.90,North,351,2.0,13.0,40,0.00,,,0.00,471,weatherlink.com 1.10,2017-07-20 15:07:00,
2017-07-20 17:22:00,87.9,62.0,29.90,WNW,290,5.0,12.0,42,0.00,,,0.00,436,weatherlink.com 1.10,2017-07-20 15:22:00,
2017-07-20 17:37:00,87.7,63.0,29.90,WNW,296,2.0,10.0,44,0.00,,,0.00,396,weatherlink.com 1.10,2017-07-20 15:37:00,
2017-07-20 17:52:00,86.9,62.0,29.89,WNW,295,5.0,9.0,43,0.00,,,0.00,355,weatherlink.com 1.10,2017-07-20 15:52:00,
2017-07-20 18:07:00,86.3,62.0,29.89,West,274,5.0,10.0,44,0.00,,,0.00,316,weatherlink.com 1.10,2017-07-20 16:07:00,